createdAt,value
2023-02-02T00:00:45.100Z,7.50
2023-02-02T00:03:11.577Z,7.43
2023-02-02T00:05:38.022Z,7.51
2023-02-02T00:08:04.755Z,7.13
2023-02-02T00:10:31.301Z,7.53
2023-02-02T00:12:57.966Z,7.48
2023-02-02T00:15:25.070Z,7.06
2023-02-02T00:17:51.772Z,7.44
2023-02-02T00:20:18.298Z,7.51
2023-02-02T00:22:44.753Z,7.50
2023-02-02T00:25:11.170Z,7.55
2023-02-02T00:27:37.599Z,7.47
2023-02-02T00:30:04.323Z,7.50
2023-02-02T00:32:30.719Z,7.36
2023-02-02T00:34:57.169Z,7.42
2023-02-02T00:37:23.630Z,7.07
2023-02-02T00:39:50.125Z,7.35
2023-02-02T00:42:16.583Z,7.39
2023-02-02T00:44:43.096Z,7.45
2023-02-02T00:47:09.516Z,7.44
2023-02-02T00:49:36.032Z,7.48
2023-02-02T00:52:02.535Z,7.27
2023-02-02T00:54:29.387Z,7.48
2023-02-02T00:56:55.892Z,7.44
2023-02-02T00:59:22.427Z,7.41
2023-02-02T01:01:48.930Z,7.07
2023-02-02T01:04:15.438Z,7.18
2023-02-02T01:06:41.899Z,7.42
2023-02-02T01:09:08.663Z,7.44
2023-02-02T01:11:35.225Z,7.45
2023-02-02T01:14:01.715Z,7.48
2023-02-02T01:16:28.364Z,7.43
2023-02-02T01:18:54.840Z,7.41
2023-02-02T01:21:21.829Z,7.06
2023-02-02T01:23:48.831Z,7.47
2023-02-02T01:26:16.137Z,7.07
2023-02-02T01:28:43.197Z,7.42
2023-02-02T01:31:12.575Z,7.40
2023-02-02T01:33:39.783Z,7.40
2023-02-02T01:36:10.047Z,7.34
2023-02-02T01:38:37.215Z,7.42
2023-02-02T01:41:04.504Z,7.29
2023-02-02T01:43:50.772Z,7.40
2023-02-02T01:46:21.077Z,7.00
2023-02-02T01:48:56.023Z,7.24
2023-02-02T01:51:26.188Z,7.20
2023-02-02T01:53:56.067Z,7.28
2023-02-02T01:56:40.296Z,7.33
2023-02-02T01:59:07.711Z,7.23
2023-02-02T02:01:34.224Z,6.95
2023-02-02T02:07:30.007Z,7.29
2023-02-02T02:09:59.789Z,7.22
2023-02-02T02:12:26.773Z,7.38
2023-02-02T02:14:53.361Z,7.35
2023-02-02T02:18:00.817Z,7.32
2023-02-02T02:20:56.635Z,7.38
2023-02-02T02:23:42.015Z,7.33
2023-02-02T02:26:27.353Z,7.33
2023-02-02T02:29:16.168Z,6.15
2023-02-02T02:32:06.442Z,7.36
2023-02-02T02:34:59.611Z,7.36
2023-02-02T02:37:39.405Z,7.34
2023-02-02T02:40:17.514Z,7.35
2023-02-02T02:42:49.925Z,7.28
2023-02-02T02:45:21.553Z,7.31
2023-02-02T02:47:50.397Z,7.33
2023-02-02T02:50:18.744Z,7.15
2023-02-02T02:52:47.752Z,7.33
2023-02-02T02:55:14.798Z,7.23
2023-02-02T02:58:07.358Z,7.18
2023-02-02T03:00:39.725Z,7.21
2023-02-02T03:03:34.210Z,7.16
2023-02-02T03:06:00.964Z,7.32
2023-02-02T03:08:44.667Z,7.38
2023-02-02T03:11:13.795Z,7.32
2023-02-02T03:13:41.529Z,7.27
2023-02-02T03:16:10.061Z,7.34
2023-02-02T03:18:38.260Z,7.20
2023-02-02T03:21:11.655Z,7.38
2023-02-02T03:23:38.316Z,7.36
2023-02-02T03:26:05.425Z,7.21
2023-02-02T03:28:33.668Z,7.18
2023-02-02T03:31:01.192Z,7.34
2023-02-02T03:33:28.653Z,7.31
2023-02-02T03:35:55.641Z,7.32
2023-02-02T03:38:30.036Z,7.30
2023-02-02T03:40:56.900Z,7.14
2023-02-02T03:43:25.795Z,7.28
2023-02-02T03:46:00.209Z,7.32
2023-02-02T03:48:27.784Z,7.21
2023-02-02T03:50:54.530Z,7.37
2023-02-02T03:53:24.753Z,6.95
2023-02-02T03:55:54.673Z,7.33
2023-02-02T03:58:21.312Z,7.31
2023-02-02T04:00:54.574Z,7.36
2023-02-02T04:03:21.578Z,7.34
2023-02-02T04:05:51.139Z,7.25
2023-02-02T04:08:18.066Z,6.81
2023-02-02T04:10:44.705Z,7.31
2023-02-02T04:13:11.378Z,7.23
2023-02-02T04:15:39.141Z,7.02
2023-02-02T04:18:06.167Z,7.00
2023-02-02T04:20:32.683Z,7.33
2023-02-02T04:22:59.267Z,7.38
2023-02-02T04:25:26.262Z,7.40
2023-02-02T04:27:52.915Z,6.99
2023-02-02T04:30:23.031Z,7.41
2023-02-02T04:32:54.780Z,7.34
2023-02-02T04:35:21.906Z,7.17
2023-02-02T04:37:48.448Z,7.39
2023-02-02T04:40:15.026Z,7.36
2023-02-02T04:42:41.538Z,7.27
2023-02-02T04:45:08.711Z,7.26
2023-02-02T04:47:35.346Z,7.29
2023-02-02T04:50:04.712Z,7.11
2023-02-02T04:52:31.196Z,7.19
2023-02-02T04:54:57.757Z,6.93
2023-02-02T04:57:24.375Z,7.17
2023-02-02T04:59:51.182Z,7.23
2023-02-02T05:02:17.824Z,7.27
2023-02-02T05:04:44.944Z,7.20
2023-02-02T05:07:14.798Z,7.28
2023-02-02T05:09:41.239Z,7.02
2023-02-02T05:12:07.752Z,7.18
2023-02-02T05:14:34.276Z,7.08
2023-02-02T05:17:01.836Z,6.97
2023-02-02T05:19:35.027Z,7.34
2023-02-02T05:22:01.569Z,7.36
2023-02-02T05:24:28.015Z,7.22
2023-02-02T05:26:54.673Z,7.26
2023-02-02T05:29:23.445Z,7.31
2023-02-02T05:31:50.234Z,7.21
2023-02-02T05:34:25.994Z,7.32
2023-02-02T05:36:52.540Z,7.20
2023-02-02T05:39:19.014Z,7.24
2023-02-02T05:41:45.666Z,7.29
2023-02-02T05:44:13.953Z,7.07
2023-02-02T05:46:41.434Z,7.15
2023-02-02T05:49:12.730Z,7.28
2023-02-02T05:51:46.505Z,7.20
2023-02-02T05:54:13.764Z,7.27
2023-02-02T05:56:40.198Z,7.26
2023-02-02T05:59:06.870Z,7.19
2023-02-02T06:01:49.173Z,7.23
2023-02-02T06:04:16.286Z,7.08
2023-02-02T06:06:43.828Z,7.11
2023-02-02T06:09:10.798Z,7.06
2023-02-02T06:11:37.330Z,6.56
2023-02-02T06:14:04.203Z,7.08
2023-02-02T06:16:45.202Z,7.09
2023-02-02T06:19:12.848Z,7.09
2023-02-02T06:21:39.740Z,6.99
2023-02-02T06:24:10.374Z,7.08
2023-02-02T06:26:37.378Z,7.06
2023-02-02T06:29:11.119Z,7.06
2023-02-02T06:31:38.235Z,7.10
2023-02-02T06:34:07.949Z,7.12
2023-02-02T06:36:34.806Z,7.07
2023-02-02T06:39:19.256Z,7.13
2023-02-02T06:41:48.347Z,7.14
2023-02-02T06:44:15.037Z,7.19
2023-02-02T06:46:42.384Z,7.19
2023-02-02T06:49:11.364Z,7.08
2023-02-02T06:51:38.547Z,7.06
2023-02-02T06:54:08.151Z,7.18
2023-02-02T06:56:34.999Z,7.09
2023-02-02T06:59:01.726Z,7.16
2023-02-02T07:01:28.540Z,7.16
2023-02-02T07:04:05.958Z,7.14
2023-02-02T07:06:32.473Z,6.87
2023-02-02T07:09:05.647Z,7.22
2023-02-02T07:11:34.706Z,7.16
2023-02-02T07:14:02.739Z,6.97
2023-02-02T07:16:29.235Z,7.01
2023-02-02T07:18:58.146Z,7.08
2023-02-02T07:21:28.442Z,7.13
2023-02-02T07:23:55.128Z,7.19
2023-02-02T07:26:22.083Z,7.19
2023-02-02T07:28:49.961Z,7.16
2023-02-02T07:31:22.606Z,7.24
2023-02-02T07:33:49.902Z,6.92
2023-02-02T07:36:19.454Z,7.20
2023-02-02T07:38:48.135Z,7.03
2023-02-02T07:41:16.455Z,7.20
2023-02-02T07:43:43.434Z,7.08
2023-02-02T07:46:10.922Z,7.26
2023-02-02T07:48:37.990Z,7.09
2023-02-02T07:51:07.158Z,7.19
2023-02-02T07:53:34.796Z,6.96
2023-02-02T07:56:16.158Z,6.97
2023-02-02T07:58:43.682Z,7.29
2023-02-02T08:01:13.355Z,7.07
2023-02-02T08:03:40.961Z,7.16
2023-02-02T08:06:29.767Z,7.41
2023-02-02T08:09:05.013Z,7.42
2023-02-02T08:11:31.995Z,7.44
2023-02-02T08:14:01.614Z,7.56
2023-02-02T08:16:30.090Z,7.38
2023-02-02T08:18:57.405Z,7.47
2023-02-02T08:21:29.449Z,7.26
2023-02-02T08:23:56.978Z,7.53
2023-02-02T08:26:27.487Z,7.47
2023-02-02T08:28:57.403Z,7.57
2023-02-02T08:31:31.553Z,7.47
2023-02-02T08:33:58.779Z,7.53
2023-02-02T08:36:29.974Z,7.62
2023-02-02T08:39:02.739Z,7.47
2023-02-02T08:41:36.281Z,7.66
2023-02-02T08:44:11.303Z,7.59
2023-02-02T08:46:38.446Z,7.62
2023-02-02T08:49:05.239Z,7.64
2023-02-02T08:51:32.170Z,7.82
2023-02-02T08:53:58.716Z,7.61
2023-02-02T08:56:27.681Z,7.64
2023-02-02T08:58:56.662Z,7.32
2023-02-02T09:01:28.664Z,7.74
2023-02-02T09:03:57.144Z,7.81
2023-02-02T09:06:30.418Z,7.89
2023-02-02T09:08:57.060Z,7.83
2023-02-02T09:11:23.824Z,7.95
2023-02-02T09:13:55.609Z,7.97
2023-02-02T09:16:23.202Z,7.41
2023-02-02T09:18:50.508Z,6.88
2023-02-02T09:21:19.174Z,7.88
2023-02-02T09:23:47.159Z,7.83
2023-02-02T09:26:18.327Z,7.45
2023-02-02T09:28:50.328Z,7.57
2023-02-02T09:31:16.914Z,7.79
2023-02-02T09:33:44.302Z,8.04
2023-02-02T09:36:17.132Z,8.12
2023-02-02T09:38:44.540Z,8.27
2023-02-02T09:41:37.034Z,7.93
2023-02-02T09:44:37.503Z,8.55
2023-02-02T09:47:41.048Z,8.41
2023-02-02T09:50:38.647Z,8.44
2023-02-02T09:53:20.632Z,8.71
2023-02-02T09:55:52.734Z,8.47
2023-02-02T09:58:34.132Z,8.56
2023-02-02T10:01:18.737Z,8.52
2023-02-02T10:04:08.936Z,8.62
2023-02-02T10:06:39.924Z,8.92
2023-02-02T10:09:19.457Z,8.98
2023-02-02T10:12:09.797Z,9.01
2023-02-02T10:15:10.608Z,9.27
2023-02-02T10:17:59.887Z,10.27
2023-02-02T10:20:45.228Z,10.27
2023-02-02T10:23:23.661Z,10.33
2023-02-02T10:25:57.968Z,10.36
2023-02-02T10:28:41.655Z,11.38
2023-02-02T10:31:25.281Z,10.59
2023-02-02T10:34:37.763Z,10.37
2023-02-02T10:37:21.637Z,10.02
2023-02-02T10:40:30.434Z,9.20
2023-02-02T10:43:24.077Z,9.56
2023-02-02T10:45:52.405Z,9.15
2023-02-02T10:48:22.797Z,9.00
2023-02-02T10:50:55.950Z,9.56
2023-02-02T10:53:25.159Z,9.22
2023-02-02T10:56:07.497Z,9.22
2023-02-02T10:58:46.634Z,9.28
2023-02-02T11:01:13.479Z,9.19
2023-02-02T11:03:40.539Z,9.47
2023-02-02T11:06:08.412Z,9.27
2023-02-02T11:08:41.950Z,8.72
2023-02-02T11:11:12.829Z,8.51
2023-02-02T11:14:08.556Z,9.20
2023-02-02T11:16:43.351Z,9.21
2023-02-02T11:19:30.526Z,9.17
2023-02-02T11:22:03.159Z,8.97
2023-02-02T11:24:49.771Z,9.57
2023-02-02T11:27:57.636Z,9.25
2023-02-02T11:30:34.516Z,9.26
2023-02-02T11:33:21.058Z,9.08
2023-02-02T11:36:01.179Z,9.00
2023-02-02T11:38:30.112Z,8.30
2023-02-02T11:41:05.139Z,9.42
2023-02-02T11:43:36.074Z,9.42
2023-02-02T11:46:06.728Z,9.34
2023-02-02T11:48:38.322Z,9.28
2023-02-02T11:51:08.314Z,9.41
2023-02-02T11:53:39.201Z,9.36
2023-02-02T11:56:17.493Z,9.29
2023-02-02T11:58:47.961Z,9.46
2023-02-02T12:01:36.591Z,9.52
2023-02-02T12:04:32.436Z,8.98
2023-02-02T12:06:59.351Z,9.09
2023-02-02T12:09:26.475Z,8.80
2023-02-02T12:11:59.246Z,9.00
2023-02-02T12:14:34.766Z,8.93
2023-02-02T12:17:10.652Z,9.03
2023-02-02T12:19:37.230Z,9.20
2023-02-02T12:22:41.405Z,8.91
2023-02-02T12:25:31.469Z,8.96
2023-02-02T12:28:11.675Z,8.75
2023-02-02T12:31:15.936Z,8.78
2023-02-02T12:34:20.244Z,8.68
2023-02-02T12:36:55.633Z,8.80
2023-02-02T12:39:36.904Z,8.68
2023-02-02T12:42:31.604Z,8.48
2023-02-02T12:45:10.679Z,8.82
2023-02-02T12:48:10.063Z,8.60
2023-02-02T12:50:43.311Z,8.49
2023-02-02T12:54:34.304Z,8.55
2023-02-02T12:56:45.020Z,8.73
2023-02-02T12:59:20.300Z,8.69
2023-02-02T13:02:01.703Z,8.48
2023-02-02T13:04:46.325Z,8.70
2023-02-02T13:07:50.050Z,8.58
2023-02-02T13:10:26.567Z,8.69
2023-02-02T13:13:33.762Z,8.72
2023-02-02T13:16:08.504Z,8.70
2023-02-02T13:18:54.726Z,8.73
2023-02-02T13:21:23.986Z,8.35
2023-02-02T13:23:53.713Z,8.65
2023-02-02T13:26:28.888Z,8.76
2023-02-02T13:29:06.470Z,8.64
2023-02-02T13:31:40.389Z,9.07
2023-02-02T13:34:54.869Z,8.86
2023-02-02T13:37:36.501Z,8.59
2023-02-02T13:40:16.778Z,8.78
2023-02-02T13:42:54.614Z,8.71
2023-02-02T13:45:43.398Z,8.73
2023-02-02T13:48:19.203Z,8.45
2023-02-02T13:51:11.500Z,8.61
2023-02-02T13:54:03.737Z,8.59
2023-02-02T13:57:01.237Z,8.32
2023-02-02T13:59:46.585Z,8.34
2023-02-02T14:02:40.163Z,8.09
2023-02-02T14:05:08.503Z,8.50
2023-02-02T14:07:44.052Z,8.35
2023-02-02T14:10:30.373Z,8.52
2023-02-02T14:13:14.521Z,8.56
2023-02-02T14:15:44.336Z,8.65
2023-02-02T14:18:10.870Z,8.64
2023-02-02T14:20:49.323Z,8.82
2023-02-02T14:23:51.130Z,8.71
2023-02-02T14:26:47.425Z,8.92
2023-02-02T14:29:30.196Z,9.10
2023-02-02T14:32:24.718Z,8.91
2023-02-02T14:34:52.691Z,8.92
2023-02-02T14:37:25.180Z,8.78
2023-02-02T14:40:07.227Z,8.67
2023-02-02T14:42:45.938Z,8.70
2023-02-02T14:45:12.391Z,8.63
2023-02-02T14:47:51.924Z,8.80
2023-02-02T14:50:29.002Z,8.78
2023-02-02T14:53:02.918Z,8.65
2023-02-02T14:55:30.605Z,8.75
2023-02-02T14:58:00.822Z,8.44
2023-02-02T15:00:33.705Z,8.67
2023-02-02T15:03:37.728Z,8.64
2023-02-02T15:06:24.108Z,8.52
2023-02-02T15:09:25.563Z,8.71
2023-02-02T15:12:02.102Z,8.66
2023-02-02T15:15:06.483Z,8.63
2023-02-02T15:17:39.430Z,8.58
2023-02-02T15:20:05.908Z,8.45
2023-02-02T15:22:37.608Z,8.44
2023-02-02T15:25:45.815Z,8.56
2023-02-02T15:28:37.391Z,8.19
2023-02-02T15:31:29.357Z,8.36
2023-02-02T15:34:00.717Z,8.51
2023-02-02T15:36:30.546Z,8.41
2023-02-02T15:39:08.545Z,8.00
2023-02-02T15:41:41.329Z,7.91
2023-02-02T15:44:30.450Z,8.45
2023-02-02T15:46:57.494Z,8.49
2023-02-02T15:49:35.189Z,8.59
2023-02-02T15:52:15.948Z,8.49
2023-02-02T15:54:54.746Z,8.38
2023-02-02T15:57:25.901Z,7.92
2023-02-02T15:59:52.533Z,8.32
2023-02-02T16:02:40.462Z,8.28
2023-02-02T16:05:39.462Z,8.45
2023-02-02T16:08:14.581Z,8.31
2023-02-02T16:10:41.142Z,7.99
2023-02-02T16:13:08.190Z,8.21
2023-02-02T16:15:37.417Z,7.93
2023-02-02T16:18:06.883Z,8.28
2023-02-02T16:20:37.461Z,8.28
2023-02-02T16:23:10.469Z,7.84
2023-02-02T16:25:46.979Z,8.32
2023-02-02T16:28:19.920Z,8.12
2023-02-02T16:30:46.626Z,8.31
2023-02-02T16:33:36.259Z,8.21
2023-02-02T16:36:23.972Z,8.32
2023-02-02T16:38:52.969Z,8.35
2023-02-02T16:41:29.906Z,8.44
2023-02-02T16:43:58.933Z,8.41
2023-02-02T16:46:47.839Z,8.54
2023-02-02T16:49:18.183Z,8.41
2023-02-02T16:51:46.806Z,8.46
2023-02-02T16:54:20.962Z,8.47
2023-02-02T16:56:59.177Z,8.53
2023-02-02T16:59:30.169Z,8.53
2023-02-02T17:02:02.523Z,8.53
2023-02-02T17:04:33.331Z,8.21
2023-02-02T17:07:12.613Z,7.27
2023-02-02T17:09:40.627Z,8.57
2023-02-02T17:12:31.950Z,8.57
2023-02-02T17:15:01.914Z,8.59
2023-02-02T17:17:28.894Z,8.49
2023-02-02T17:19:55.642Z,8.63
2023-02-02T17:22:25.027Z,8.64
2023-02-02T17:24:52.484Z,8.66
2023-02-02T17:27:28.433Z,8.60
2023-02-02T17:29:57.982Z,8.67
2023-02-02T17:32:24.927Z,8.71
2023-02-02T17:34:51.437Z,8.66
2023-02-02T17:37:18.255Z,8.67
2023-02-02T17:39:44.900Z,8.70
2023-02-02T17:42:32.467Z,8.68
2023-02-02T17:44:58.953Z,8.66
2023-02-02T17:47:25.590Z,8.45
2023-02-02T17:49:52.069Z,8.31
2023-02-02T17:52:18.583Z,8.64
2023-02-02T17:54:45.150Z,8.58
2023-02-02T17:57:11.859Z,8.62
2023-02-02T17:59:38.379Z,8.60
2023-02-02T18:02:04.986Z,8.67
2023-02-02T18:04:31.453Z,8.60
2023-02-02T18:07:00.620Z,8.52
2023-02-02T18:09:32.173Z,8.54
2023-02-02T18:12:00.064Z,8.49
2023-02-02T18:14:26.716Z,8.57
2023-02-02T18:16:53.205Z,8.66
2023-02-02T18:19:19.760Z,8.63
2023-02-02T18:21:46.226Z,8.59
2023-02-02T18:24:13.491Z,8.24
2023-02-02T18:26:40.082Z,8.50
2023-02-02T18:29:06.771Z,8.61
2023-02-02T18:31:33.544Z,8.58
2023-02-02T18:34:00.329Z,8.59
2023-02-02T18:36:27.331Z,8.36
2023-02-02T18:38:56.264Z,8.09
2023-02-02T18:41:22.790Z,8.34
2023-02-02T18:43:49.540Z,8.37
2023-02-02T18:46:16.771Z,8.35
2023-02-02T18:48:43.724Z,8.04
2023-02-02T18:51:15.939Z,8.35
2023-02-02T18:53:43.315Z,8.41
2023-02-02T18:56:11.103Z,8.09
2023-02-02T18:58:37.775Z,8.31
2023-02-02T19:01:16.484Z,8.30
2023-02-02T19:03:47.848Z,7.93
2023-02-02T19:06:14.489Z,8.23
2023-02-02T19:08:48.953Z,8.20
2023-02-02T19:11:18.410Z,8.23
2023-02-02T19:13:45.761Z,8.30
2023-02-02T19:16:25.708Z,8.23
2023-02-02T19:18:59.321Z,8.22
2023-02-02T19:21:29.991Z,8.18
2023-02-02T19:23:58.991Z,8.14
2023-02-02T19:26:28.923Z,8.24
2023-02-02T19:29:02.982Z,7.80
2023-02-02T19:31:29.746Z,8.04
2023-02-02T19:33:58.233Z,8.18
2023-02-02T19:36:26.668Z,8.27
2023-02-02T19:39:02.205Z,8.26
2023-02-02T19:41:32.564Z,8.23
2023-02-02T19:44:06.317Z,8.21
2023-02-02T19:46:42.458Z,8.17
2023-02-02T19:49:15.145Z,8.13
2023-02-02T19:51:53.455Z,8.24
2023-02-02T19:54:39.448Z,8.26
2023-02-02T19:57:20.552Z,8.23
2023-02-02T19:59:51.693Z,8.21
2023-02-02T20:02:48.746Z,8.27
2023-02-02T20:05:21.720Z,8.19
2023-02-02T20:07:55.778Z,8.21
2023-02-02T20:10:25.921Z,8.22
2023-02-02T20:12:53.383Z,8.30
2023-02-02T20:15:36.644Z,8.28
2023-02-02T20:18:06.532Z,7.92
2023-02-02T20:20:41.548Z,8.16
2023-02-02T20:23:37.583Z,8.25
2023-02-02T20:26:16.770Z,8.15
2023-02-02T20:28:45.527Z,8.29
2023-02-02T20:31:16.009Z,8.31
2023-02-02T20:33:48.133Z,7.67
2023-02-02T20:36:39.867Z,8.33
2023-02-02T20:39:34.425Z,8.27
2023-02-02T20:42:05.100Z,8.31
2023-02-02T20:44:33.141Z,7.98
2023-02-02T20:47:01.011Z,8.22
2023-02-02T20:49:31.335Z,8.19
2023-02-02T20:52:04.083Z,8.18
2023-02-02T20:54:30.955Z,8.26
2023-02-02T20:56:58.277Z,8.13
2023-02-02T20:59:24.829Z,8.27
2023-02-02T21:01:51.462Z,7.86
2023-02-02T21:04:18.350Z,8.13
2023-02-02T21:06:45.872Z,8.18
2023-02-02T21:09:12.498Z,8.27
2023-02-02T21:11:39.450Z,7.93
2023-02-02T21:14:06.111Z,8.17
2023-02-02T21:16:33.136Z,8.16
2023-02-02T21:19:00.789Z,8.21
2023-02-02T21:21:28.066Z,8.16
2023-02-02T21:23:54.616Z,8.02
2023-02-02T21:26:23.311Z,8.23
2023-02-02T21:28:49.780Z,8.21
2023-02-02T21:31:17.476Z,8.13
2023-02-02T21:33:51.053Z,8.10
2023-02-02T21:36:20.692Z,8.10
2023-02-02T21:38:47.202Z,8.09
2023-02-02T21:41:15.375Z,8.15
2023-02-02T21:43:42.853Z,7.61
2023-02-02T21:46:22.352Z,8.17
2023-02-02T21:48:49.212Z,8.14
2023-02-02T21:51:23.334Z,8.12
2023-02-02T21:53:50.884Z,8.07
2023-02-02T21:56:39.088Z,7.74
2023-02-02T21:59:20.431Z,8.15
2023-02-02T22:01:49.005Z,8.14
2023-02-02T22:04:19.835Z,8.17
2023-02-02T22:06:54.575Z,8.05
2023-02-02T22:09:27.075Z,8.12
2023-02-02T22:11:59.695Z,8.12
2023-02-02T22:14:37.443Z,8.11
2023-02-02T22:17:42.697Z,8.12
2023-02-02T22:20:15.494Z,8.15
2023-02-02T22:22:45.878Z,8.13
2023-02-02T22:25:18.450Z,8.06
2023-02-02T22:27:55.565Z,8.15
2023-02-02T22:30:36.604Z,7.89
2023-02-02T22:33:05.073Z,7.35
2023-02-02T22:35:32.776Z,8.19
2023-02-02T22:37:59.988Z,8.13
2023-02-02T22:40:29.898Z,8.11
2023-02-02T22:42:58.724Z,8.08
2023-02-02T22:45:28.169Z,7.83
2023-02-02T22:47:59.321Z,8.17
2023-02-02T22:50:29.298Z,7.85
2023-02-02T22:52:58.739Z,8.16
2023-02-02T22:55:25.223Z,8.07
2023-02-02T22:57:51.754Z,7.77
2023-02-02T23:00:23.963Z,8.08
2023-02-02T23:02:51.418Z,6.93
2023-02-02T23:05:19.497Z,8.04
2023-02-02T23:07:46.677Z,8.03
2023-02-02T23:10:15.858Z,7.97
2023-02-02T23:12:43.458Z,7.78
2023-02-02T23:15:11.514Z,7.32
2023-02-02T23:17:38.377Z,8.01
2023-02-02T23:20:07.576Z,8.02
2023-02-02T23:22:34.069Z,7.94
2023-02-02T23:25:04.123Z,7.98
2023-02-02T23:27:31.053Z,7.96
2023-02-02T23:30:01.864Z,7.73
2023-02-02T23:32:31.506Z,7.93
2023-02-02T23:34:58.445Z,7.97
2023-02-02T23:37:25.282Z,7.53
2023-02-02T23:39:51.932Z,8.02
2023-02-02T23:42:18.593Z,8.03
2023-02-02T23:44:45.112Z,8.07
2023-02-02T23:47:11.836Z,8.12
2023-02-02T23:49:39.214Z,7.99
2023-02-02T23:52:06.936Z,6.92
2023-02-02T23:54:34.047Z,8.16
2023-02-02T23:57:01.649Z,8.11
2023-02-02T23:59:28.320Z,8.17
